sensor_id;sensor_type;location;lat;lon;timestamp;pressure;altitude;pressure_sealevel;temperature;humidity
60049;BME280;45925;45.544;6.756;2022-08-20T00:01:29;87516.72;;;12.48;82.20
60049;BME280;45925;45.544;6.756;2022-08-20T00:06:30;87520.50;;;12.51;80.87
60049;BME280;45925;45.544;6.756;2022-08-20T00:11:31;87510.06;;;12.47;80.51
60049;BME280;45925;45.544;6.756;2022-08-20T00:16:35;87515.28;;;12.39;79.31
60049;BME280;45925;45.544;6.756;2022-08-20T00:21:36;87510.91;;;12.30;79.34
60049;BME280;45925;45.544;6.756;2022-08-20T00:26:36;87502.28;;;12.26;79.04
60049;BME280;45925;45.544;6.756;2022-08-20T00:31:37;87499.50;;;11.63;81.52
60049;BME280;45925;45.544;6.756;2022-08-20T00:36:37;87507.44;;;11.96;80.53
60049;BME280;45925;45.544;6.756;2022-08-20T00:41:38;87506.53;;;11.92;80.87
60049;BME280;45925;45.544;6.756;2022-08-20T00:46:40;87513.22;;;11.93;80.42
60049;BME280;45925;45.544;6.756;2022-08-20T00:51:44;87512.88;;;11.86;81.64
60049;BME280;45925;45.544;6.756;2022-08-20T00:56:50;87506.41;;;11.80;80.37
60049;BME280;45925;45.544;6.756;2022-08-20T01:01:52;87507.16;;;11.81;80.53
60049;BME280;45925;45.544;6.756;2022-08-20T01:06:53;87508.94;;;11.50;81.91
60049;BME280;45925;45.544;6.756;2022-08-20T01:11:54;87502.66;;;11.69;80.59
60049;BME280;45925;45.544;6.756;2022-08-20T01:16:58;87502.44;;;11.44;81.63
60049;BME280;45925;45.544;6.756;2022-08-20T01:22:00;87503.91;;;11.63;79.82
60049;BME280;45925;45.544;6.756;2022-08-20T01:27:23;87507.09;;;11.51;80.35
60049;BME280;45925;45.544;6.756;2022-08-20T01:32:24;87508.75;;;11.55;79.99
60049;BME280;45925;45.544;6.756;2022-08-20T01:37:24;87514.53;;;11.52;80.42
60049;BME280;45925;45.544;6.756;2022-08-20T01:42:36;87522.06;;;11.66;79.65
60049;BME280;45925;45.544;6.756;2022-08-20T01:47:40;87523.25;;;11.69;79.82
60049;BME280;45925;45.544;6.756;2022-08-20T01:52:56;87515.63;;;11.81;79.02
60049;BME280;45925;45.544;6.756;2022-08-20T01:57:59;87515.81;;;11.85;79.92
60049;BME280;45925;45.544;6.756;2022-08-20T02:03:00;87512.34;;;11.72;79.66
60049;BME280;45925;45.544;6.756;2022-08-20T02:08:03;87495.97;;;11.76;80.15
60049;BME280;45925;45.544;6.756;2022-08-20T02:13:04;87498.94;;;11.87;79.39
60049;BME280;45925;45.544;6.756;2022-08-20T02:18:07;87498.84;;;11.75;78.99
60049;BME280;45925;45.544;6.756;2022-08-20T02:23:10;87500.44;;;11.50;79.55
60049;BME280;45925;45.544;6.756;2022-08-20T02:28:13;87490.72;;;11.64;77.82
60049;BME280;45925;45.544;6.756;2022-08-20T02:33:16;87491.09;;;11.36;80.18
60049;BME280;45925;45.544;6.756;2022-08-20T02:38:18;87492.31;;;11.30;78.79
60049;BME280;45925;45.544;6.756;2022-08-20T02:43:18;87485.19;;;11.27;80.14
60049;BME280;45925;45.544;6.756;2022-08-20T02:48:20;87483.75;;;11.09;80.60
60049;BME280;45925;45.544;6.756;2022-08-20T02:53:26;87483.13;;;11.03;80.55
60049;BME280;45925;45.544;6.756;2022-08-20T02:58:27;87478.56;;;11.17;78.64
60049;BME280;45925;45.544;6.756;2022-08-20T03:03:27;87484.00;;;11.24;79.55
60049;BME280;45925;45.544;6.756;2022-08-20T03:08:28;87480.41;;;11.17;79.88
60049;BME280;45925;45.544;6.756;2022-08-20T03:13:29;87478.41;;;11.22;77.50
60049;BME280;45925;45.544;6.756;2022-08-20T03:18:33;87475.69;;;11.19;78.65
60049;BME280;45925;45.544;6.756;2022-08-20T03:23:35;87462.50;;;11.20;78.27
60049;BME280;45925;45.544;6.756;2022-08-20T03:28:37;87467.13;;;10.71;80.44
60049;BME280;45925;45.544;6.756;2022-08-20T03:33:38;87469.25;;;10.51;82.84
60049;BME280;45925;45.544;6.756;2022-08-20T03:38:39;87461.06;;;10.84;81.50
60049;BME280;45925;45.544;6.756;2022-08-20T03:43:40;87466.81;;;10.46;82.64
60049;BME280;45925;45.544;6.756;2022-08-20T03:48:41;87462.72;;;10.89;74.56
60049;BME280;45925;45.544;6.756;2022-08-20T03:53:41;87462.13;;;10.83;79.09
60049;BME280;45925;45.544;6.756;2022-08-20T03:58:42;87468.63;;;10.90;78.11
60049;BME280;45925;45.544;6.756;2022-08-20T04:03:42;87467.69;;;10.94;78.65
60049;BME280;45925;45.544;6.756;2022-08-20T04:08:44;87473.34;;;10.61;80.89
60049;BME280;45925;45.544;6.756;2022-08-20T04:13:45;87469.09;;;10.57;80.65
60049;BME280;45925;45.544;6.756;2022-08-20T04:18:46;87468.31;;;10.74;79.73
60049;BME280;45925;45.544;6.756;2022-08-20T04:23:49;87472.38;;;10.31;82.64
60049;BME280;45925;45.544;6.756;2022-08-20T04:28:51;87472.41;;;10.40;83.02
60049;BME280;45925;45.544;6.756;2022-08-20T04:33:52;87476.06;;;10.65;81.58
60049;BME280;45925;45.544;6.756;2022-08-20T04:38:52;87478.00;;;10.68;80.39
60049;BME280;45925;45.544;6.756;2022-08-20T04:43:54;87488.31;;;10.50;80.13
60049;BME280;45925;45.544;6.756;2022-08-20T04:48:56;87499.25;;;10.07;83.54
60049;BME280;45925;45.544;6.756;2022-08-20T04:53:57;87503.22;;;10.31;82.96
60049;BME280;45925;45.544;6.756;2022-08-20T04:58:59;87505.41;;;10.55;80.06
60049;BME280;45925;45.544;6.756;2022-08-20T05:04:00;87501.72;;;10.39;82.69
60049;BME280;45925;45.544;6.756;2022-08-20T05:09:01;87505.53;;;10.41;82.39
60049;BME280;45925;45.544;6.756;2022-08-20T05:14:03;87500.84;;;10.61;78.79
60049;BME280;45925;45.544;6.756;2022-08-20T05:19:06;87495.25;;;10.41;81.65
60049;BME280;45925;45.544;6.756;2022-08-20T05:24:08;87495.09;;;10.38;84.27
60049;BME280;45925;45.544;6.756;2022-08-20T05:29:09;87498.09;;;10.31;80.98
60049;BME280;45925;45.544;6.756;2022-08-20T05:34:11;87501.91;;;10.42;79.70
60049;BME280;45925;45.544;6.756;2022-08-20T05:39:12;87500.84;;;10.69;79.86
60049;BME280;45925;45.544;6.756;2022-08-20T05:44:13;87501.75;;;10.82;80.42
60049;BME280;45925;45.544;6.756;2022-08-20T05:49:16;87504.34;;;10.82;79.86
60049;BME280;45925;45.544;6.756;2022-08-20T05:54:18;87499.03;;;10.87;79.85
60049;BME280;45925;45.544;6.756;2022-08-20T05:59:20;87501.16;;;10.85;80.46
60049;BME280;45925;45.544;6.756;2022-08-20T06:04:21;87499.78;;;10.97;79.84
60049;BME280;45925;45.544;6.756;2022-08-20T06:09:31;87497.03;;;11.02;79.10
60049;BME280;45925;45.544;6.756;2022-08-20T06:14:32;87488.56;;;11.10;79.72
60049;BME280;45925;45.544;6.756;2022-08-20T06:19:34;87487.03;;;11.18;79.56
60049;BME280;45925;45.544;6.756;2022-08-20T06:24:35;87488.84;;;11.26;79.04
60049;BME280;45925;45.544;6.756;2022-08-20T06:29:36;87478.69;;;11.21;79.89
60049;BME280;45925;45.544;6.756;2022-08-20T06:34:37;87484.28;;;11.32;79.59
60049;BME280;45925;45.544;6.756;2022-08-20T06:39:37;87496.53;;;11.35;80.70
60049;BME280;45925;45.544;6.756;2022-08-20T06:44:38;87495.31;;;11.41;79.16
60049;BME280;45925;45.544;6.756;2022-08-20T06:49:39;87497.91;;;11.41;79.64
60049;BME280;45925;45.544;6.756;2022-08-20T06:54:39;87500.94;;;11.26;81.42
60049;BME280;45925;45.544;6.756;2022-08-20T06:59:40;87502.75;;;11.42;80.58
60049;BME280;45925;45.544;6.756;2022-08-20T07:04:41;87497.25;;;11.53;80.31
60049;BME280;45925;45.544;6.756;2022-08-20T07:09:41;87495.94;;;11.47;82.96
60049;BME280;45925;45.544;6.756;2022-08-20T07:14:42;87500.88;;;11.60;82.74
60049;BME280;45925;45.544;6.756;2022-08-20T07:19:43;87494.84;;;11.95;78.71
60049;BME280;45925;45.544;6.756;2022-08-20T07:24:44;87496.31;;;12.35;76.29
60049;BME280;45925;45.544;6.756;2022-08-20T07:29:44;87507.53;;;12.39;78.53
60049;BME280;45925;45.544;6.756;2022-08-20T07:35:07;87513.22;;;12.23;79.75
60049;BME280;45925;45.544;6.756;2022-08-20T07:40:15;87510.44;;;12.37;78.72
60049;BME280;45925;45.544;6.756;2022-08-20T07:45:16;87505.41;;;12.62;77.89
60049;BME280;45925;45.544;6.756;2022-08-20T07:50:20;87497.03;;;12.86;76.36
60049;BME280;45925;45.544;6.756;2022-08-20T07:55:22;87495.66;;;12.89;78.04
60049;BME280;45925;45.544;6.756;2022-08-20T08:00:23;87500.31;;;12.95;78.92
60049;BME280;45925;45.544;6.756;2022-08-20T08:05:25;87489.13;;;13.25;76.72
60049;BME280;45925;45.544;6.756;2022-08-20T08:10:26;87498.94;;;13.31;77.10
60049;BME280;45925;45.544;6.756;2022-08-20T08:15:29;87506.53;;;12.73;80.95
60049;BME280;45925;45.544;6.756;2022-08-20T08:20:34;87500.25;;;13.04;79.55
60049;BME280;45925;45.544;6.756;2022-08-20T08:25:41;87510.63;;;12.95;78.32
60049;BME280;45925;45.544;6.756;2022-08-20T08:30:44;87508.34;;;13.36;78.76
60049;BME280;45925;45.544;6.756;2022-08-20T08:35:45;87507.00;;;13.30;79.64
60049;BME280;45925;45.544;6.756;2022-08-20T08:40:47;87519.50;;;12.85;82.65
60049;BME280;45925;45.544;6.756;2022-08-20T08:46:02;87511.94;;;13.01;81.20
60049;BME280;45925;45.544;6.756;2022-08-20T08:51:05;87512.22;;;13.09;81.29
60049;BME280;45925;45.544;6.756;2022-08-20T08:56:13;87517.69;;;12.86;79.64
60049;BME280;45925;45.544;6.756;2022-08-20T09:01:17;87517.50;;;13.79;76.37
60049;BME280;45925;45.544;6.756;2022-08-20T09:06:21;87519.31;;;13.33;77.90
60049;BME280;45925;45.544;6.756;2022-08-20T09:11:23;87519.56;;;13.98;75.43
60049;BME280;45925;45.544;6.756;2022-08-20T09:16:24;87520.03;;;14.25;73.49
60049;BME280;45925;45.544;6.756;2022-08-20T09:21:26;87516.97;;;13.86;74.43
60049;BME280;45925;45.544;6.756;2022-08-20T09:26:26;87513.66;;;14.10;71.95
60049;BME280;45925;45.544;6.756;2022-08-20T09:31:27;87514.72;;;14.34;71.93
60049;BME280;45925;45.544;6.756;2022-08-20T09:36:28;87510.94;;;14.56;67.85
60049;BME280;45925;45.544;6.756;2022-08-20T09:41:29;87512.81;;;14.18;66.93
60049;BME280;45925;45.544;6.756;2022-08-20T09:46:30;87509.81;;;14.94;65.32
60049;BME280;45925;45.544;6.756;2022-08-20T09:51:31;87510.81;;;15.30;65.62
60049;BME280;45925;45.544;6.756;2022-08-20T09:56:33;87501.22;;;14.90;65.79
60049;BME280;45925;45.544;6.756;2022-08-20T10:01:35;87500.59;;;14.80;65.12
60049;BME280;45925;45.544;6.756;2022-08-20T10:06:39;87488.56;;;15.00;63.89
60049;BME280;45925;45.544;6.756;2022-08-20T10:11:40;87488.13;;;15.55;67.97
60049;BME280;45925;45.544;6.756;2022-08-20T10:16:41;87493.66;;;15.25;71.40
60049;BME280;45925;45.544;6.756;2022-08-20T10:21:41;87484.38;;;15.68;68.28
60049;BME280;45925;45.544;6.756;2022-08-20T10:26:43;87481.78;;;15.24;69.51
60049;BME280;45925;45.544;6.756;2022-08-20T10:31:43;87478.19;;;15.29;62.87
60049;BME280;45925;45.544;6.756;2022-08-20T10:36:44;87480.63;;;15.66;66.91
60049;BME280;45925;45.544;6.756;2022-08-20T10:41:45;87475.44;;;15.66;65.96
60049;BME280;45925;45.544;6.756;2022-08-20T10:46:46;87472.38;;;16.24;64.49
60049;BME280;45925;45.544;6.756;2022-08-20T10:51:46;87471.56;;;16.04;64.84
60049;BME280;45925;45.544;6.756;2022-08-20T10:56:47;87471.72;;;15.95;64.74
60049;BME280;45925;45.544;6.756;2022-08-20T11:01:48;87469.31;;;15.86;63.89
60049;BME280;45925;45.544;6.756;2022-08-20T11:06:48;87482.94;;;16.31;63.99
60049;BME280;45925;45.544;6.756;2022-08-20T11:11:49;87466.44;;;16.91;61.62
60049;BME280;45925;45.544;6.756;2022-08-20T11:16:49;87460.75;;;17.44;59.36
60049;BME280;45925;45.544;6.756;2022-08-20T11:21:50;87460.19;;;17.54;60.53
60049;BME280;45925;45.544;6.756;2022-08-20T11:26:50;87455.28;;;17.29;60.12
60049;BME280;45925;45.544;6.756;2022-08-20T11:31:52;87441.78;;;17.63;59.13
60049;BME280;45925;45.544;6.756;2022-08-20T11:36:53;87440.59;;;17.80;59.89
60049;BME280;45925;45.544;6.756;2022-08-20T11:41:53;87443.78;;;17.92;57.94
60049;BME280;45925;45.544;6.756;2022-08-20T11:46:54;87450.97;;;17.80;58.32
60049;BME280;45925;45.544;6.756;2022-08-20T11:51:59;87452.81;;;17.99;54.41
60049;BME280;45925;45.544;6.756;2022-08-20T11:56:59;87454.91;;;18.39;59.16
60049;BME280;45925;45.544;6.756;2022-08-20T12:02:00;87445.13;;;18.33;56.87
60049;BME280;45925;45.544;6.756;2022-08-20T12:07:18;87442.41;;;17.79;59.36
60049;BME280;45925;45.544;6.756;2022-08-20T12:12:21;87445.91;;;18.60;59.10
60049;BME280;45925;45.544;6.756;2022-08-20T12:17:26;87440.38;;;18.65;58.63
60049;BME280;45925;45.544;6.756;2022-08-20T12:22:27;87432.81;;;18.83;58.01
60049;BME280;45925;45.544;6.756;2022-08-20T12:27:29;87431.56;;;18.20;59.94
60049;BME280;45925;45.544;6.756;2022-08-20T12:32:31;87429.28;;;18.15;61.02
60049;BME280;45925;45.544;6.756;2022-08-20T12:37:31;87425.88;;;18.37;60.56
60049;BME280;45925;45.544;6.756;2022-08-20T12:42:32;87431.63;;;18.77;58.13
60049;BME280;45925;45.544;6.756;2022-08-20T12:47:35;87419.53;;;19.22;57.06
60049;BME280;45925;45.544;6.756;2022-08-20T12:52:37;87404.88;;;19.44;57.65
60049;BME280;45925;45.544;6.756;2022-08-20T12:57:41;87416.09;;;19.14;58.09
60049;BME280;45925;45.544;6.756;2022-08-20T13:02:43;87402.75;;;19.19;57.23
60049;BME280;45925;45.544;6.756;2022-08-20T13:07:44;87397.94;;;19.22;54.35
60049;BME280;45925;45.544;6.756;2022-08-20T13:12:45;87400.09;;;19.50;54.17
60049;BME280;45925;45.544;6.756;2022-08-20T13:17:54;87388.41;;;19.36;55.27
60049;BME280;45925;45.544;6.756;2022-08-20T13:22:55;87388.81;;;20.24;49.57
60049;BME280;45925;45.544;6.756;2022-08-20T13:27:58;87384.75;;;20.27;51.23
60049;BME280;45925;45.544;6.756;2022-08-20T13:32:59;87382.25;;;19.97;53.69
60049;BME280;45925;45.544;6.756;2022-08-20T13:38:00;87374.78;;;21.17;51.42
60049;BME280;45925;45.544;6.756;2022-08-20T13:43:00;87377.66;;;19.79;50.29
60049;BME280;45925;45.544;6.756;2022-08-20T13:48:01;87373.91;;;20.84;49.32
60049;BME280;45925;45.544;6.756;2022-08-20T13:53:03;87371.44;;;19.95;53.02
60049;BME280;45925;45.544;6.756;2022-08-20T13:58:05;87375.00;;;20.83;51.01
60049;BME280;45925;45.544;6.756;2022-08-20T14:03:06;87368.09;;;19.98;53.43
60049;BME280;45925;45.544;6.756;2022-08-20T14:08:16;87361.72;;;21.28;52.99
60049;BME280;45925;45.544;6.756;2022-08-20T14:13:19;87366.22;;;23.22;47.22
60049;BME280;45925;45.544;6.756;2022-08-20T14:18:20;87351.88;;;24.11;45.03
60049;BME280;45925;45.544;6.756;2022-08-20T14:23:21;87361.63;;;24.63;40.91
60049;BME280;45925;45.544;6.756;2022-08-20T14:28:23;87346.88;;;24.28;42.69
60049;BME280;45925;45.544;6.756;2022-08-20T14:33:23;87339.78;;;25.70;38.40
60049;BME280;45925;45.544;6.756;2022-08-20T14:38:24;87332.09;;;27.04;36.24
60049;BME280;45925;45.544;6.756;2022-08-20T14:43:24;87339.13;;;27.71;34.94
60049;BME280;45925;45.544;6.756;2022-08-20T14:48:25;87339.13;;;26.67;35.82
60049;BME280;45925;45.544;6.756;2022-08-20T14:53:27;87341.31;;;26.49;37.76
60049;BME280;45925;45.544;6.756;2022-08-20T14:58:27;87338.03;;;26.41;38.44
60049;BME280;45925;45.544;6.756;2022-08-20T15:03:28;87339.00;;;26.74;39.27
60049;BME280;45925;45.544;6.756;2022-08-20T15:08:29;87322.19;;;28.05;35.14
60049;BME280;45925;45.544;6.756;2022-08-20T15:13:30;87314.28;;;25.63;40.75
60049;BME280;45925;45.544;6.756;2022-08-20T15:18:31;87310.16;;;27.47;36.23
60049;BME280;45925;45.544;6.756;2022-08-20T15:23:31;87321.88;;;24.54;40.98
60049;BME280;45925;45.544;6.756;2022-08-20T15:28:32;87313.13;;;26.42;38.58
60049;BME280;45925;45.544;6.756;2022-08-20T15:33:32;87315.78;;;27.50;36.62
60049;BME280;45925;45.544;6.756;2022-08-20T15:38:33;87300.50;;;27.94;36.01
60049;BME280;45925;45.544;6.756;2022-08-20T15:43:34;87311.59;;;28.22;33.79
60049;BME280;45925;45.544;6.756;2022-08-20T15:48:39;87304.34;;;27.36;33.85
60049;BME280;45925;45.544;6.756;2022-08-20T15:54:12;87293.88;;;26.21;36.10
60049;BME280;45925;45.544;6.756;2022-08-20T15:59:25;87291.50;;;27.75;34.33
60049;BME280;45925;45.544;6.756;2022-08-20T16:05:15;87287.50;;;29.95;31.53
60049;BME280;45925;45.544;6.756;2022-08-20T16:15:58;87294.63;;;29.14;31.24
60049;BME280;45925;45.544;6.756;2022-08-20T16:21:01;87294.59;;;28.23;31.79
60049;BME280;45925;45.544;6.756;2022-08-20T16:26:43;87305.88;;;27.14;33.50
60049;BME280;45925;45.544;6.756;2022-08-20T16:42:18;87306.31;;;25.39;37.77
60049;BME280;45925;45.544;6.756;2022-08-20T16:47:25;87301.13;;;24.67;39.40
60049;BME280;45925;45.544;6.756;2022-08-20T16:52:27;87298.59;;;22.70;43.45
60049;BME280;45925;45.544;6.756;2022-08-20T16:57:28;87296.91;;;23.79;41.62
60049;BME280;45925;45.544;6.756;2022-08-20T17:02:28;87300.44;;;23.58;43.07
60049;BME280;45925;45.544;6.756;2022-08-20T17:07:46;87298.66;;;22.37;45.83
60049;BME280;45925;45.544;6.756;2022-08-20T17:18:24;87294.53;;;22.29;45.48
60049;BME280;45925;45.544;6.756;2022-08-20T17:23:26;87289.34;;;21.79;46.90
60049;BME280;45925;45.544;6.756;2022-08-20T17:28:27;87299.03;;;22.47;47.03
60049;BME280;45925;45.544;6.756;2022-08-20T17:38:46;87297.84;;;21.25;47.57
60049;BME280;45925;45.544;6.756;2022-08-20T17:44:01;87292.72;;;21.68;46.52
60049;BME280;45925;45.544;6.756;2022-08-20T17:49:05;87302.69;;;21.20;48.05
60049;BME280;45925;45.544;6.756;2022-08-20T17:54:15;87300.19;;;21.56;48.71
60049;BME280;45925;45.544;6.756;2022-08-20T17:59:30;87302.22;;;20.89;49.92
60049;BME280;45925;45.544;6.756;2022-08-20T18:04:32;87306.00;;;20.98;50.16
60049;BME280;45925;45.544;6.756;2022-08-20T18:10:09;87312.00;;;21.06;50.50
60049;BME280;45925;45.544;6.756;2022-08-20T18:30:58;87331.38;;;20.24;53.30
60049;BME280;45925;45.544;6.756;2022-08-20T18:36:11;87335.22;;;19.86;54.70
60049;BME280;45925;45.544;6.756;2022-08-20T18:41:26;87337.75;;;20.31;52.74
60049;BME280;45925;45.544;6.756;2022-08-20T18:46:27;87340.91;;;19.99;53.08
60049;BME280;45925;45.544;6.756;2022-08-20T18:51:36;87355.03;;;19.53;55.03
60049;BME280;45925;45.544;6.756;2022-08-20T18:56:41;87348.75;;;19.58;54.11
60049;BME280;45925;45.544;6.756;2022-08-20T19:01:42;87355.78;;;19.53;54.72
60049;BME280;45925;45.544;6.756;2022-08-20T19:06:55;87365.03;;;19.47;54.96
60049;BME280;45925;45.544;6.756;2022-08-20T19:22:28;87383.53;;;18.97;57.06
60049;BME280;45925;45.544;6.756;2022-08-20T19:27:29;87387.34;;;18.77;57.83
60049;BME280;45925;45.544;6.756;2022-08-20T19:32:31;87389.63;;;18.52;58.82
60049;BME280;45925;45.544;6.756;2022-08-20T19:37:36;87393.25;;;18.74;57.82
60049;BME280;45925;45.544;6.756;2022-08-20T19:42:41;87395.69;;;18.59;58.23
60049;BME280;45925;45.544;6.756;2022-08-20T19:53:26;87397.03;;;17.11;63.37
60049;BME280;45925;45.544;6.756;2022-08-20T19:58:28;87411.53;;;17.97;61.42
60049;BME280;45925;45.544;6.756;2022-08-20T20:03:33;87402.53;;;18.44;58.90
60049;BME280;45925;45.544;6.756;2022-08-20T20:08:55;87408.50;;;18.18;59.32
60049;BME280;45925;45.544;6.756;2022-08-20T20:14:05;87411.50;;;17.74;60.65
60049;BME280;45925;45.544;6.756;2022-08-20T20:19:09;87414.59;;;17.37;61.74
60049;BME280;45925;45.544;6.756;2022-08-20T20:24:23;87414.94;;;17.16;63.00
60049;BME280;45925;45.544;6.756;2022-08-20T20:29:27;87420.94;;;16.81;64.03
60049;BME280;45925;45.544;6.756;2022-08-20T20:34:35;87418.66;;;17.15;63.17
60049;BME280;45925;45.544;6.756;2022-08-20T20:39:39;87423.00;;;17.30;62.28
60049;BME280;45925;45.544;6.756;2022-08-20T20:44:42;87413.13;;;17.39;61.25
60049;BME280;45925;45.544;6.756;2022-08-20T20:49:51;87420.94;;;17.39;61.56
60049;BME280;45925;45.544;6.756;2022-08-20T21:00:11;87430.78;;;16.72;63.99
60049;BME280;45925;45.544;6.756;2022-08-20T21:05:15;87419.63;;;17.07;62.62
60049;BME280;45925;45.544;6.756;2022-08-20T21:10:18;87429.41;;;16.78;63.79
60049;BME280;45925;45.544;6.756;2022-08-20T21:15:21;87430.53;;;16.96;62.79
60049;BME280;45925;45.544;6.756;2022-08-20T21:20:22;87438.47;;;16.68;63.84
60049;BME280;45925;45.544;6.756;2022-08-20T21:25:24;87439.16;;;17.00;62.39
60049;BME280;45925;45.544;6.756;2022-08-20T21:30:25;87438.75;;;16.82;63.17
60049;BME280;45925;45.544;6.756;2022-08-20T21:35:25;87434.72;;;16.65;64.04
60049;BME280;45925;45.544;6.756;2022-08-20T21:40:26;87442.75;;;16.41;64.54
60049;BME280;45925;45.544;6.756;2022-08-20T21:45:27;87446.31;;;16.52;63.83
60049;BME280;45925;45.544;6.756;2022-08-20T21:50:28;87451.25;;;16.41;64.36
60049;BME280;45925;45.544;6.756;2022-08-20T21:55:30;87450.56;;;15.93;66.03
60049;BME280;45925;45.544;6.756;2022-08-20T22:00:52;87450.91;;;15.91;66.46
60049;BME280;45925;45.544;6.756;2022-08-20T22:05:54;87454.22;;;16.24;65.77
60049;BME280;45925;45.544;6.756;2022-08-20T22:10:56;87459.00;;;16.22;65.50
60049;BME280;45925;45.544;6.756;2022-08-20T22:15:59;87457.41;;;16.17;66.11
60049;BME280;45925;45.544;6.756;2022-08-20T22:21:02;87456.59;;;15.97;66.42
60049;BME280;45925;45.544;6.756;2022-08-20T22:26:06;87461.94;;;15.88;67.52
60049;BME280;45925;45.544;6.756;2022-08-20T22:31:07;87451.91;;;16.03;66.92
60049;BME280;45925;45.544;6.756;2022-08-20T22:36:08;87450.16;;;15.91;67.50
60049;BME280;45925;45.544;6.756;2022-08-20T22:41:09;87442.84;;;15.65;69.10
60049;BME280;45925;45.544;6.756;2022-08-20T22:46:10;87447.31;;;15.80;67.66
60049;BME280;45925;45.544;6.756;2022-08-20T22:51:21;87438.97;;;15.14;70.50
60049;BME280;45925;45.544;6.756;2022-08-20T22:56:22;87431.19;;;15.43;69.05
60049;BME280;45925;45.544;6.756;2022-08-20T23:01:22;87435.97;;;15.56;68.39
60049;BME280;45925;45.544;6.756;2022-08-20T23:06:23;87438.16;;;15.54;68.15
60049;BME280;45925;45.544;6.756;2022-08-20T23:11:26;87432.13;;;15.06;69.07
60049;BME280;45925;45.544;6.756;2022-08-20T23:16:26;87436.44;;;15.30;68.97
60049;BME280;45925;45.544;6.756;2022-08-20T23:21:27;87427.31;;;15.36;68.63
60049;BME280;45925;45.544;6.756;2022-08-20T23:26:27;87425.25;;;15.42;66.65
60049;BME280;45925;45.544;6.756;2022-08-20T23:31:28;87422.94;;;15.53;67.14
60049;BME280;45925;45.544;6.756;2022-08-20T23:36:29;87415.94;;;15.25;68.82
60049;BME280;45925;45.544;6.756;2022-08-20T23:41:30;87408.97;;;15.42;69.17
60049;BME280;45925;45.544;6.756;2022-08-20T23:46:32;87399.34;;;15.42;69.58
60049;BME280;45925;45.544;6.756;2022-08-20T23:51:34;87389.31;;;15.56;69.01
60049;BME280;45925;45.544;6.756;2022-08-20T23:56:34;87389.25;;;15.37;70.47
